sensor_id;sensor_type;location;lat;lon;timestamp;pressure;altitude;pressure_sealevel;temperature;humidity
68941;BME280;55982;51.476;7.552;2023-05-20T00:00:36;100452.50;;;11.09;100.00
68941;BME280;55982;51.476;7.552;2023-05-20T00:03:02;100449.00;;;11.10;100.00
68941;BME280;55982;51.476;7.552;2023-05-20T00:05:27;100447.31;;;11.07;100.00
68941;BME280;55982;51.476;7.552;2023-05-20T00:07:52;100448.19;;;11.06;100.00
68941;BME280;55982;51.476;7.552;2023-05-20T00:10:18;100450.06;;;11.37;100.00
68941;BME280;55982;51.476;7.552;2023-05-20T00:12:43;100453.16;;;11.51;100.00
68941;BME280;55982;51.476;7.552;2023-05-20T00:15:09;100454.94;;;11.49;100.00
68941;BME280;55982;51.476;7.552;2023-05-20T00:17:36;100455.28;;;11.37;100.00
68941;BME280;55982;51.476;7.552;2023-05-20T00:20:01;100451.69;;;11.41;100.00
68941;BME280;55982;51.476;7.552;2023-05-20T00:22:27;100466.63;;;11.37;100.00
68941;BME280;55982;51.476;7.552;2023-05-20T00:24:52;100457.41;;;11.23;100.00
68941;BME280;55982;51.476;7.552;2023-05-20T00:27:18;100462.78;;;11.17;100.00
68941;BME280;55982;51.476;7.552;2023-05-20T00:29:43;100462.44;;;10.96;100.00
68941;BME280;55982;51.476;7.552;2023-05-20T00:32:08;100459.97;;;10.90;100.00
68941;BME280;55982;51.476;7.552;2023-05-20T00:34:34;100461.91;;;10.82;100.00
68941;BME280;55982;51.476;7.552;2023-05-20T00:36:59;100463.16;;;10.66;100.00
68941;BME280;55982;51.476;7.552;2023-05-20T00:39:25;100459.06;;;10.56;100.00
68941;BME280;55982;51.476;7.552;2023-05-20T00:41:51;100454.31;;;10.35;100.00
68941;BME280;55982;51.476;7.552;2023-05-20T00:44:16;100456.25;;;10.24;100.00
68941;BME280;55982;51.476;7.552;2023-05-20T00:46:43;100458.00;;;10.25;100.00
68941;BME280;55982;51.476;7.552;2023-05-20T00:49:09;100461.66;;;10.18;100.00
68941;BME280;55982;51.476;7.552;2023-05-20T00:51:34;100459.09;;;10.15;100.00
68941;BME280;55982;51.476;7.552;2023-05-20T00:53:59;100454.69;;;10.17;100.00
68941;BME280;55982;51.476;7.552;2023-05-20T00:56:25;100461.66;;;10.18;100.00
68941;BME280;55982;51.476;7.552;2023-05-20T00:58:51;100454.56;;;10.23;100.00
68941;BME280;55982;51.476;7.552;2023-05-20T01:01:16;100454.47;;;10.26;100.00
68941;BME280;55982;51.476;7.552;2023-05-20T01:03:41;100455.44;;;10.24;100.00
68941;BME280;55982;51.476;7.552;2023-05-20T01:06:07;100447.53;;;10.25;100.00
68941;BME280;55982;51.476;7.552;2023-05-20T01:08:32;100452.91;;;10.19;100.00
68941;BME280;55982;51.476;7.552;2023-05-20T01:11:24;100447.66;;;10.19;100.00
68941;BME280;55982;51.476;7.552;2023-05-20T01:13:54;100442.22;;;10.28;100.00
68941;BME280;55982;51.476;7.552;2023-05-20T01:16:23;100431.63;;;10.34;100.00
68941;BME280;55982;51.476;7.552;2023-05-20T01:18:50;100439.56;;;10.31;100.00
68941;BME280;55982;51.476;7.552;2023-05-20T01:21:16;100432.81;;;10.21;100.00
68941;BME280;55982;51.476;7.552;2023-05-20T01:23:42;100438.88;;;10.23;100.00
68941;BME280;55982;51.476;7.552;2023-05-20T01:26:08;100433.69;;;10.20;100.00
68941;BME280;55982;51.476;7.552;2023-05-20T01:28:41;100440.03;;;10.10;100.00
68941;BME280;55982;51.476;7.552;2023-05-20T01:31:14;100441.09;;;10.00;100.00
68941;BME280;55982;51.476;7.552;2023-05-20T01:33:42;100441.00;;;10.03;100.00
68941;BME280;55982;51.476;7.552;2023-05-20T01:36:09;100432.19;;;10.07;100.00
68941;BME280;55982;51.476;7.552;2023-05-20T01:38:35;100428.41;;;10.23;100.00
68941;BME280;55982;51.476;7.552;2023-05-20T01:41:03;100431.97;;;10.19;100.00
68941;BME280;55982;51.476;7.552;2023-05-20T01:43:29;100434.28;;;10.33;100.00
68941;BME280;55982;51.476;7.552;2023-05-20T01:45:55;100426.34;;;10.37;100.00
68941;BME280;55982;51.476;7.552;2023-05-20T01:48:20;100422.91;;;10.35;100.00
68941;BME280;55982;51.476;7.552;2023-05-20T01:50:46;100422.97;;;10.32;100.00
68941;BME280;55982;51.476;7.552;2023-05-20T01:53:11;100421.31;;;10.28;100.00
68941;BME280;55982;51.476;7.552;2023-05-20T01:55:37;100410.16;;;10.22;100.00
68941;BME280;55982;51.476;7.552;2023-05-20T01:58:03;100416.38;;;10.16;100.00
68941;BME280;55982;51.476;7.552;2023-05-20T02:00:29;100414.72;;;10.12;100.00
68941;BME280;55982;51.476;7.552;2023-05-20T02:02:55;100421.75;;;10.07;100.00
68941;BME280;55982;51.476;7.552;2023-05-20T02:05:20;100418.44;;;9.99;100.00
68941;BME280;55982;51.476;7.552;2023-05-20T02:07:45;100421.28;;;9.88;100.00
68941;BME280;55982;51.476;7.552;2023-05-20T02:10:11;100417.69;;;9.94;100.00
68941;BME280;55982;51.476;7.552;2023-05-20T02:12:36;100409.63;;;10.03;100.00
68941;BME280;55982;51.476;7.552;2023-05-20T02:15:02;100413.84;;;10.11;100.00
68941;BME280;55982;51.476;7.552;2023-05-20T02:17:28;100419.97;;;10.09;100.00
68941;BME280;55982;51.476;7.552;2023-05-20T02:19:53;100420.25;;;9.97;100.00
68941;BME280;55982;51.476;7.552;2023-05-20T02:22:18;100426.44;;;9.91;100.00
68941;BME280;55982;51.476;7.552;2023-05-20T02:24:44;100421.31;;;9.87;100.00
68941;BME280;55982;51.476;7.552;2023-05-20T02:27:10;100427.44;;;9.86;100.00
68941;BME280;55982;51.476;7.552;2023-05-20T02:29:35;100431.06;;;9.79;100.00
68941;BME280;55982;51.476;7.552;2023-05-20T02:32:01;100430.19;;;9.78;100.00
68941;BME280;55982;51.476;7.552;2023-05-20T02:34:26;100439.06;;;9.71;100.00
68941;BME280;55982;51.476;7.552;2023-05-20T02:36:51;100434.81;;;9.66;100.00
68941;BME280;55982;51.476;7.552;2023-05-20T02:39:17;100437.53;;;9.60;100.00
68941;BME280;55982;51.476;7.552;2023-05-20T02:41:42;100443.78;;;9.53;100.00
68941;BME280;55982;51.476;7.552;2023-05-20T02:44:07;100436.19;;;9.41;100.00
68941;BME280;55982;51.476;7.552;2023-05-20T02:46:33;100440.59;;;9.36;100.00
68941;BME280;55982;51.476;7.552;2023-05-20T02:48:58;100435.44;;;9.33;100.00
68941;BME280;55982;51.476;7.552;2023-05-20T02:51:24;100438.97;;;9.32;100.00
68941;BME280;55982;51.476;7.552;2023-05-20T02:53:49;100433.56;;;9.41;100.00
68941;BME280;55982;51.476;7.552;2023-05-20T02:56:15;100437.13;;;9.37;100.00
68941;BME280;55982;51.476;7.552;2023-05-20T02:58:40;100433.56;;;9.41;100.00
68941;BME280;55982;51.476;7.552;2023-05-20T03:01:05;100436.06;;;9.47;100.00
68941;BME280;55982;51.476;7.552;2023-05-20T03:03:31;100431.69;;;9.47;100.00
68941;BME280;55982;51.476;7.552;2023-05-20T03:05:57;100428.28;;;9.44;100.00
68941;BME280;55982;51.476;7.552;2023-05-20T03:08:22;100439.78;;;9.34;100.00
68941;BME280;55982;51.476;7.552;2023-05-20T03:10:49;100432.13;;;9.24;100.00
68941;BME280;55982;51.476;7.552;2023-05-20T03:13:15;100433.19;;;9.13;100.00
68941;BME280;55982;51.476;7.552;2023-05-20T03:15:41;100433.94;;;9.19;100.00
68941;BME280;55982;51.476;7.552;2023-05-20T03:18:06;100425.13;;;9.27;100.00
68941;BME280;55982;51.476;7.552;2023-05-20T03:20:35;100420.84;;;9.22;100.00
68941;BME280;55982;51.476;7.552;2023-05-20T03:23:01;100426.97;;;9.21;100.00
68941;BME280;55982;51.476;7.552;2023-05-20T03:25:27;100427.06;;;9.15;100.00
68941;BME280;55982;51.476;7.552;2023-05-20T03:27:53;100432.19;;;9.21;100.00
68941;BME280;55982;51.476;7.552;2023-05-20T03:30:18;100430.28;;;9.28;100.00
68941;BME280;55982;51.476;7.552;2023-05-20T03:32:44;100419.69;;;9.39;100.00
68941;BME280;55982;51.476;7.552;2023-05-20T03:35:09;100420.28;;;9.51;100.00
68941;BME280;55982;51.476;7.552;2023-05-20T03:37:35;100413.31;;;9.52;100.00
68941;BME280;55982;51.476;7.552;2023-05-20T03:40:01;100415.47;;;9.76;100.00
68941;BME280;55982;51.476;7.552;2023-05-20T03:42:26;100410.19;;;9.77;100.00
68941;BME280;55982;51.476;7.552;2023-05-20T03:44:53;100401.50;;;9.77;100.00
68941;BME280;55982;51.476;7.552;2023-05-20T03:47:18;100403.34;;;9.72;100.00
68941;BME280;55982;51.476;7.552;2023-05-20T03:49:43;100402.41;;;9.76;100.00
68941;BME280;55982;51.476;7.552;2023-05-20T03:52:08;100410.25;;;9.76;100.00
68941;BME280;55982;51.476;7.552;2023-05-20T03:54:34;100411.03;;;9.78;100.00
68941;BME280;55982;51.476;7.552;2023-05-20T03:57:00;100413.66;;;9.78;100.00
68941;BME280;55982;51.476;7.552;2023-05-20T03:59:27;100410.09;;;9.82;100.00
68941;BME280;55982;51.476;7.552;2023-05-20T04:01:53;100405.69;;;9.84;100.00
68941;BME280;55982;51.476;7.552;2023-05-20T04:04:18;100409.97;;;9.88;100.00
68941;BME280;55982;51.476;7.552;2023-05-20T04:06:43;100395.75;;;10.01;100.00
68941;BME280;55982;51.476;7.552;2023-05-20T04:09:10;100406.88;;;10.09;100.00
68941;BME280;55982;51.476;7.552;2023-05-20T04:11:35;100405.84;;;10.19;100.00
68941;BME280;55982;51.476;7.552;2023-05-20T04:14:00;100403.09;;;10.25;100.00
68941;BME280;55982;51.476;7.552;2023-05-20T04:16:26;100404.66;;;10.32;100.00
68941;BME280;55982;51.476;7.552;2023-05-20T04:18:53;100402.50;;;10.49;100.00
68941;BME280;55982;51.476;7.552;2023-05-20T04:21:18;100406.72;;;10.56;100.00
68941;BME280;55982;51.476;7.552;2023-05-20T04:23:45;100402.00;;;10.70;100.00
68941;BME280;55982;51.476;7.552;2023-05-20T04:26:11;100409.72;;;10.76;100.00
68941;BME280;55982;51.476;7.552;2023-05-20T04:28:37;100404.41;;;10.79;100.00
68941;BME280;55982;51.476;7.552;2023-05-20T04:31:03;100396.53;;;10.81;100.00
68941;BME280;55982;51.476;7.552;2023-05-20T04:33:29;100393.84;;;10.82;100.00
68941;BME280;55982;51.476;7.552;2023-05-20T04:35:55;100397.28;;;10.84;100.00
68941;BME280;55982;51.476;7.552;2023-05-20T04:38:23;100396.22;;;10.91;100.00
68941;BME280;55982;51.476;7.552;2023-05-20T04:40:54;100395.41;;;10.89;100.00
68941;BME280;55982;51.476;7.552;2023-05-20T04:43:22;100397.88;;;10.95;100.00
68941;BME280;55982;51.476;7.552;2023-05-20T04:45:47;100399.63;;;10.96;100.00
68941;BME280;55982;51.476;7.552;2023-05-20T04:48:13;100400.28;;;11.04;100.00
68941;BME280;55982;51.476;7.552;2023-05-20T04:50:38;100400.91;;;11.13;100.00
68941;BME280;55982;51.476;7.552;2023-05-20T04:53:04;100398.31;;;11.13;100.00
68941;BME280;55982;51.476;7.552;2023-05-20T04:55:29;100401.59;;;11.21;100.00
68941;BME280;55982;51.476;7.552;2023-05-20T04:57:56;100403.22;;;11.25;100.00
68941;BME280;55982;51.476;7.552;2023-05-20T05:00:21;100406.41;;;11.36;100.00
68941;BME280;55982;51.476;7.552;2023-05-20T05:02:47;100410.81;;;11.35;100.00
68941;BME280;55982;51.476;7.552;2023-05-20T05:05:13;100410.66;;;11.40;100.00
68941;BME280;55982;51.476;7.552;2023-05-20T05:07:38;100403.25;;;11.55;100.00
68941;BME280;55982;51.476;7.552;2023-05-20T05:10:04;100411.31;;;11.48;100.00
68941;BME280;55982;51.476;7.552;2023-05-20T05:12:29;100418.75;;;11.63;100.00
68941;BME280;55982;51.476;7.552;2023-05-20T05:14:55;100419.84;;;11.56;100.00
68941;BME280;55982;51.476;7.552;2023-05-20T05:17:21;100419.69;;;11.62;100.00
68941;BME280;55982;51.476;7.552;2023-05-20T05:19:47;100421.06;;;11.75;100.00
68941;BME280;55982;51.476;7.552;2023-05-20T05:22:12;100408.78;;;11.77;100.00
68941;BME280;55982;51.476;7.552;2023-05-20T05:24:37;100414.38;;;11.63;100.00
68941;BME280;55982;51.476;7.552;2023-05-20T05:27:03;100420.16;;;11.77;100.00
68941;BME280;55982;51.476;7.552;2023-05-20T05:29:28;100412.41;;;11.73;100.00
68941;BME280;55982;51.476;7.552;2023-05-20T05:31:53;100421.56;;;11.87;100.00
68941;BME280;55982;51.476;7.552;2023-05-20T05:34:19;100411.09;;;11.87;100.00
68941;BME280;55982;51.476;7.552;2023-05-20T05:36:44;100407.94;;;12.06;100.00
68941;BME280;55982;51.476;7.552;2023-05-20T05:39:11;100406.06;;;12.09;100.00
68941;BME280;55982;51.476;7.552;2023-05-20T05:41:36;100407.53;;;12.19;100.00
68941;BME280;55982;51.476;7.552;2023-05-20T05:44:01;100400.47;;;12.21;100.00
68941;BME280;55982;51.476;7.552;2023-05-20T05:46:27;100400.38;;;12.24;100.00
68941;BME280;55982;51.476;7.552;2023-05-20T05:48:52;100398.00;;;12.44;100.00
68941;BME280;55982;51.476;7.552;2023-05-20T05:51:17;100395.38;;;12.44;100.00
68941;BME280;55982;51.476;7.552;2023-05-20T05:53:43;100404.00;;;12.74;100.00
68941;BME280;55982;51.476;7.552;2023-05-20T05:56:09;100401.81;;;12.34;100.00
68941;BME280;55982;51.476;7.552;2023-05-20T05:58:34;100400.00;;;12.36;100.00
68941;BME280;55982;51.476;7.552;2023-05-20T06:00:59;100397.44;;;12.35;100.00
68941;BME280;55982;51.476;7.552;2023-05-20T06:03:26;100385.72;;;12.45;100.00
68941;BME280;55982;51.476;7.552;2023-05-20T06:05:51;100390.63;;;12.28;100.00
68941;BME280;55982;51.476;7.552;2023-05-20T06:08:16;100396.19;;;12.46;100.00
68941;BME280;55982;51.476;7.552;2023-05-20T06:10:47;100394.31;;;12.22;100.00
68941;BME280;55982;51.476;7.552;2023-05-20T06:13:12;100388.06;;;12.26;100.00
68941;BME280;55982;51.476;7.552;2023-05-20T06:15:39;100386.75;;;12.39;100.00
68941;BME280;55982;51.476;7.552;2023-05-20T06:18:04;100377.00;;;12.44;100.00
68941;BME280;55982;51.476;7.552;2023-05-20T06:20:30;100377.63;;;12.52;100.00
68941;BME280;55982;51.476;7.552;2023-05-20T06:22:55;100381.84;;;12.82;100.00
68941;BME280;55982;51.476;7.552;2023-05-20T06:25:20;100379.81;;;12.64;100.00
68941;BME280;55982;51.476;7.552;2023-05-20T06:27:47;100371.34;;;12.56;100.00
68941;BME280;55982;51.476;7.552;2023-05-20T06:30:13;100372.47;;;12.75;100.00
68941;BME280;55982;51.476;7.552;2023-05-20T06:32:38;100374.06;;;12.79;100.00
68941;BME280;55982;51.476;7.552;2023-05-20T06:35:04;100369.84;;;12.49;100.00
68941;BME280;55982;51.476;7.552;2023-05-20T06:37:29;100375.06;;;12.77;100.00
68941;BME280;55982;51.476;7.552;2023-05-20T06:39:55;100377.69;;;12.77;100.00
68941;BME280;55982;51.476;7.552;2023-05-20T06:42:20;100362.84;;;13.01;100.00
68941;BME280;55982;51.476;7.552;2023-05-20T06:44:46;100373.66;;;12.92;100.00
68941;BME280;55982;51.476;7.552;2023-05-20T06:47:13;100371.47;;;13.06;100.00
68941;BME280;55982;51.476;7.552;2023-05-20T06:49:41;100366.72;;;12.91;100.00
68941;BME280;55982;51.476;7.552;2023-05-20T06:52:06;100372.78;;;12.93;100.00
68941;BME280;55982;51.476;7.552;2023-05-20T06:54:32;100371.84;;;12.94;100.00
68941;BME280;55982;51.476;7.552;2023-05-20T06:57:00;100375.81;;;12.80;100.00
68941;BME280;55982;51.476;7.552;2023-05-20T06:59:25;100370.03;;;12.96;100.00
68941;BME280;55982;51.476;7.552;2023-05-20T07:01:50;100366.50;;;12.97;100.00
68941;BME280;55982;51.476;7.552;2023-05-20T07:04:16;100363.94;;;13.20;100.00
68941;BME280;55982;51.476;7.552;2023-05-20T07:06:41;100366.16;;;12.81;100.00
68941;BME280;55982;51.476;7.552;2023-05-20T07:09:06;100360.16;;;13.04;100.00
68941;BME280;55982;51.476;7.552;2023-05-20T07:11:32;100368.47;;;13.16;100.00
68941;BME280;55982;51.476;7.552;2023-05-20T07:13:57;100359.09;;;12.83;100.00
68941;BME280;55982;51.476;7.552;2023-05-20T07:16:23;100363.75;;;13.00;100.00
68941;BME280;55982;51.476;7.552;2023-05-20T07:18:48;100360.00;;;13.08;100.00
68941;BME280;55982;51.476;7.552;2023-05-20T07:21:13;100358.63;;;12.97;100.00
68941;BME280;55982;51.476;7.552;2023-05-20T07:23:39;100360.38;;;13.22;100.00
68941;BME280;55982;51.476;7.552;2023-05-20T07:26:04;100353.13;;;13.29;100.00
68941;BME280;55982;51.476;7.552;2023-05-20T07:28:30;100354.19;;;13.48;100.00
68941;BME280;55982;51.476;7.552;2023-05-20T07:30:55;100353.19;;;13.75;100.00
68941;BME280;55982;51.476;7.552;2023-05-20T07:33:22;100346.59;;;14.08;100.00
68941;BME280;55982;51.476;7.552;2023-05-20T07:35:47;100350.47;;;13.76;100.00
68941;BME280;55982;51.476;7.552;2023-05-20T07:38:13;100340.47;;;13.40;100.00
68941;BME280;55982;51.476;7.552;2023-05-20T07:40:39;100331.91;;;13.81;100.00
68941;BME280;55982;51.476;7.552;2023-05-20T07:43:06;100339.28;;;14.16;100.00
68941;BME280;55982;51.476;7.552;2023-05-20T07:45:35;100342.13;;;14.33;100.00
68941;BME280;55982;51.476;7.552;2023-05-20T07:48:01;100337.53;;;13.94;100.00
68941;BME280;55982;51.476;7.552;2023-05-20T07:50:27;100342.13;;;14.10;100.00
68941;BME280;55982;51.476;7.552;2023-05-20T07:52:52;100340.53;;;14.29;100.00
68941;BME280;55982;51.476;7.552;2023-05-20T07:55:17;100335.84;;;14.14;100.00
68941;BME280;55982;51.476;7.552;2023-05-20T07:57:43;100335.03;;;14.12;100.00
68941;BME280;55982;51.476;7.552;2023-05-20T08:00:08;100341.47;;;14.05;100.00
68941;BME280;55982;51.476;7.552;2023-05-20T08:02:35;100343.78;;;14.57;100.00
68941;BME280;55982;51.476;7.552;2023-05-20T08:05:01;100338.66;;;14.33;100.00
68941;BME280;55982;51.476;7.552;2023-05-20T08:07:26;100328.16;;;14.53;100.00
68941;BME280;55982;51.476;7.552;2023-05-20T08:09:52;100333.91;;;14.62;100.00
68941;BME280;55982;51.476;7.552;2023-05-20T08:12:19;100346.84;;;14.89;100.00
68941;BME280;55982;51.476;7.552;2023-05-20T08:14:45;100346.84;;;14.89;100.00
68941;BME280;55982;51.476;7.552;2023-05-20T08:17:10;100342.00;;;14.58;100.00
68941;BME280;55982;51.476;7.552;2023-05-20T08:19:35;100340.53;;;14.29;100.00
68941;BME280;55982;51.476;7.552;2023-05-20T08:22:01;100343.84;;;14.34;100.00
68941;BME280;55982;51.476;7.552;2023-05-20T08:24:26;100343.44;;;14.00;100.00
68941;BME280;55982;51.476;7.552;2023-05-20T08:26:52;100338.53;;;14.36;100.00
68941;BME280;55982;51.476;7.552;2023-05-20T08:29:17;100338.81;;;14.50;100.00
68941;BME280;55982;51.476;7.552;2023-05-20T08:31:42;100337.22;;;14.68;100.00
68941;BME280;55982;51.476;7.552;2023-05-20T08:34:08;100340.41;;;14.32;100.00
68941;BME280;55982;51.476;7.552;2023-05-20T08:36:33;100347.56;;;14.50;100.00
68941;BME280;55982;51.476;7.552;2023-05-20T08:38:59;100339.69;;;14.29;100.00
68941;BME280;55982;51.476;7.552;2023-05-20T08:41:24;100347.22;;;14.15;100.00
68941;BME280;55982;51.476;7.552;2023-05-20T08:43:50;100352.38;;;13.96;100.00
68941;BME280;55982;51.476;7.552;2023-05-20T08:46:17;100356.22;;;14.09;100.00
68941;BME280;55982;51.476;7.552;2023-05-20T08:48:44;100348.41;;;14.29;100.00
68941;BME280;55982;51.476;7.552;2023-05-20T08:51:10;100334.91;;;14.38;100.00
68941;BME280;55982;51.476;7.552;2023-05-20T08:53:36;100335.16;;;14.32;100.00
68941;BME280;55982;51.476;7.552;2023-05-20T08:56:01;100342.56;;;14.44;100.00
68941;BME280;55982;51.476;7.552;2023-05-20T08:58:31;100347.88;;;14.21;100.00
68941;BME280;55982;51.476;7.552;2023-05-20T09:00:59;100345.13;;;14.88;100.00
68941;BME280;55982;51.476;7.552;2023-05-20T09:03:25;100344.59;;;15.40;100.00
68941;BME280;55982;51.476;7.552;2023-05-20T09:05:51;100343.81;;;15.38;100.00
68941;BME280;55982;51.476;7.552;2023-05-20T09:08:17;100339.31;;;14.80;100.00
68941;BME280;55982;51.476;7.552;2023-05-20T09:10:42;100343.00;;;14.76;100.00
68941;BME280;55982;51.476;7.552;2023-05-20T09:13:09;100345.94;;;15.10;100.00
68941;BME280;55982;51.476;7.552;2023-05-20T09:15:35;100335.75;;;15.61;100.00
68941;BME280;55982;51.476;7.552;2023-05-20T09:18:05;100338.78;;;15.32;100.00
68941;BME280;55982;51.476;7.552;2023-05-20T09:20:33;100336.19;;;14.92;100.00
68941;BME280;55982;51.476;7.552;2023-05-20T09:23:00;100338.56;;;14.98;100.00
68941;BME280;55982;51.476;7.552;2023-05-20T09:25:26;100340.03;;;14.41;100.00
68941;BME280;55982;51.476;7.552;2023-05-20T09:27:52;100347.31;;;14.98;100.00
68941;BME280;55982;51.476;7.552;2023-05-20T09:30:19;100332.47;;;15.16;100.00
68941;BME280;55982;51.476;7.552;2023-05-20T09:32:45;100338.81;;;15.12;100.00
68941;BME280;55982;51.476;7.552;2023-05-20T09:35:15;100341.16;;;15.18;100.00
68941;BME280;55982;51.476;7.552;2023-05-20T09:37:42;100341.63;;;14.87;100.00
68941;BME280;55982;51.476;7.552;2023-05-20T09:40:11;100332.78;;;15.48;100.00
68941;BME280;55982;51.476;7.552;2023-05-20T09:42:50;100344.22;;;14.89;100.00
68941;BME280;55982;51.476;7.552;2023-05-20T09:45:17;100338.66;;;14.75;100.00
68941;BME280;55982;51.476;7.552;2023-05-20T09:47:43;100345.59;;;15.17;100.00
68941;BME280;55982;51.476;7.552;2023-05-20T09:50:09;100343.13;;;14.93;100.00
68941;BME280;55982;51.476;7.552;2023-05-20T09:52:36;100342.09;;;14.77;100.00
68941;BME280;55982;51.476;7.552;2023-05-20T09:55:04;100334.94;;;15.00;100.00
68941;BME280;55982;51.476;7.552;2023-05-20T09:57:36;100329.84;;;14.96;100.00
68941;BME280;55982;51.476;7.552;2023-05-20T10:00:03;100327.47;;;15.30;100.00
68941;BME280;55982;51.476;7.552;2023-05-20T10:02:30;100333.97;;;15.80;100.00
68941;BME280;55982;51.476;7.552;2023-05-20T10:04:58;100321.84;;;15.76;100.00
68941;BME280;55982;51.476;7.552;2023-05-20T10:12:33;100308.44;;;15.99;100.00
68941;BME280;55982;51.476;7.552;2023-05-20T10:15:13;100304.44;;;16.45;100.00
68941;BME280;55982;51.476;7.552;2023-05-20T10:17:53;100305.78;;;17.22;100.00
68941;BME280;55982;51.476;7.552;2023-05-20T10:20:23;100304.72;;;16.92;100.00
68941;BME280;55982;51.476;7.552;2023-05-20T10:22:55;100300.53;;;16.71;100.00
68941;BME280;55982;51.476;7.552;2023-05-20T10:25:28;100307.03;;;16.64;100.00
68941;BME280;55982;51.476;7.552;2023-05-20T10:28:07;100307.69;;;16.86;100.00
68941;BME280;55982;51.476;7.552;2023-05-20T10:30:32;100298.97;;;16.84;100.00
68941;BME280;55982;51.476;7.552;2023-05-20T10:33:04;100291.59;;;17.40;100.00
68941;BME280;55982;51.476;7.552;2023-05-20T10:35:31;100298.06;;;17.67;100.00
68941;BME280;55982;51.476;7.552;2023-05-20T10:38:11;100293.75;;;17.49;100.00
68941;BME280;55982;51.476;7.552;2023-05-20T10:40:37;100282.88;;;17.86;100.00
68941;BME280;55982;51.476;7.552;2023-05-20T10:43:15;100268.88;;;18.00;100.00
68941;BME280;55982;51.476;7.552;2023-05-20T10:45:51;100286.59;;;18.45;100.00
68941;BME280;55982;51.476;7.552;2023-05-20T10:48:24;100286.56;;;18.60;100.00
68941;BME280;55982;51.476;7.552;2023-05-20T10:50:53;100282.78;;;19.08;100.00
68941;BME280;55982;51.476;7.552;2023-05-20T10:53:21;100284.06;;;19.31;100.00
68941;BME280;55982;51.476;7.552;2023-05-20T10:55:49;100271.63;;;19.73;100.00
68941;BME280;55982;51.476;7.552;2023-05-20T10:58:19;100277.41;;;19.24;100.00
68941;BME280;55982;51.476;7.552;2023-05-20T11:00:47;100283.72;;;18.93;100.00
68941;BME280;55982;51.476;7.552;2023-05-20T11:03:14;100275.97;;;19.04;100.00
68941;BME280;55982;51.476;7.552;2023-05-20T11:05:40;100270.63;;;18.76;100.00
68941;BME280;55982;51.476;7.552;2023-05-20T11:08:07;100269.94;;;19.30;100.00
68941;BME280;55982;51.476;7.552;2023-05-20T11:10:34;100267.41;;;18.71;100.00
68941;BME280;55982;51.476;7.552;2023-05-20T11:13:00;100244.25;;;18.59;100.00
68941;BME280;55982;51.476;7.552;2023-05-20T11:15:26;100259.75;;;18.35;100.00
68941;BME280;55982;51.476;7.552;2023-05-20T11:17:57;100256.44;;;18.77;100.00
68941;BME280;55982;51.476;7.552;2023-05-20T11:20:24;100254.28;;;18.54;100.00
68941;BME280;55982;51.476;7.552;2023-05-20T11:22:51;100262.72;;;18.15;100.00
68941;BME280;55982;51.476;7.552;2023-05-20T11:25:17;100244.09;;;17.85;100.00
68941;BME280;55982;51.476;7.552;2023-05-20T11:27:43;100252.78;;;18.18;100.00
68941;BME280;55982;51.476;7.552;2023-05-20T11:30:13;100239.28;;;18.23;100.00
68941;BME280;55982;51.476;7.552;2023-05-20T11:33:03;100237.03;;;18.47;100.00
68941;BME280;55982;51.476;7.552;2023-05-20T11:35:30;100244.97;;;18.47;100.00
68941;BME280;55982;51.476;7.552;2023-05-20T11:38:00;100241.50;;;18.31;100.00
68941;BME280;55982;51.476;7.552;2023-05-20T11:40:26;100241.72;;;18.71;100.00
68941;BME280;55982;51.476;7.552;2023-05-20T11:42:55;100227.69;;;19.41;100.00
68941;BME280;55982;51.476;7.552;2023-05-20T11:45:22;100231.13;;;18.71;100.00
68941;BME280;55982;51.476;7.552;2023-05-20T11:48:01;100235.69;;;18.83;100.00
68941;BME280;55982;51.476;7.552;2023-05-20T11:50:26;100224.91;;;18.43;100.00
68941;BME280;55982;51.476;7.552;2023-05-20T11:52:59;100217.66;;;19.32;100.00
68941;BME280;55982;51.476;7.552;2023-05-20T11:55:27;100227.47;;;19.16;100.00
68941;BME280;55982;51.476;7.552;2023-05-20T11:57:53;100207.59;;;18.95;100.00
68941;BME280;55982;51.476;7.552;2023-05-20T12:00:19;100214.59;;;19.52;100.00
68941;BME280;55982;51.476;7.552;2023-05-20T12:02:45;100206.88;;;19.76;100.00
68941;BME280;55982;51.476;7.552;2023-05-20T12:05:11;100207.47;;;18.96;100.00
68941;BME280;55982;51.476;7.552;2023-05-20T12:07:37;100214.56;;;19.80;100.00
68941;BME280;55982;51.476;7.552;2023-05-20T12:10:03;100200.81;;;20.00;100.00
68941;BME280;55982;51.476;7.552;2023-05-20T12:12:29;100212.69;;;19.95;100.00
68941;BME280;55982;51.476;7.552;2023-05-20T12:14:54;100202.78;;;20.11;100.00
68941;BME280;55982;51.476;7.552;2023-05-20T12:17:19;100208.63;;;19.49;100.00
68941;BME280;55982;51.476;7.552;2023-05-20T12:19:45;100207.78;;;18.92;100.00
68941;BME280;55982;51.476;7.552;2023-05-20T12:22:10;100195.63;;;18.74;100.00
68941;BME280;55982;51.476;7.552;2023-05-20T12:24:36;100210.44;;;18.92;100.00
68941;BME280;55982;51.476;7.552;2023-05-20T12:27:01;100224.63;;;18.77;100.00
68941;BME280;55982;51.476;7.552;2023-05-20T12:29:28;100210.00;;;18.10;100.00
68941;BME280;55982;51.476;7.552;2023-05-20T12:31:53;100207.84;;;18.33;100.00
68941;BME280;55982;51.476;7.552;2023-05-20T12:34:19;100202.81;;;18.12;100.00
68941;BME280;55982;51.476;7.552;2023-05-20T12:36:44;100205.22;;;18.47;100.00
68941;BME280;55982;51.476;7.552;2023-05-20T12:39:10;100204.63;;;18.71;100.00
68941;BME280;55982;51.476;7.552;2023-05-20T12:41:36;100203.59;;;18.14;100.00